Bryce Canyon Airport Bryce Canyon US
ICAO: KBCE
IATA: BCE
Category: Medium
Scheduled Services: No

Elevation: 7590 ft
TransAlt. 18000 ft.

Airport Communications:
ASOS:135.475
CEDAR CITY RDO:122.2
CTAF/UNICOM:122.8

KBCE Zoom In..

If Map Doesn't Load, Click Here

Runways:

(A) RW 03 length 7395 ft width 75 ft
---- / hdg 33

(B) RW 21 length 7395 ft width 75 ft
---- / hdg 213

Location; KBCE
Day. 23 / Time. 07.53 Zulu
* Altimeter: 30.29
* Temperature: 07° c. 44.6°f.
* Wind from: 270° Speed 09 kn.
Dewpoint: 00° c.
Visibility: 10 Statute Miles.
Clouds: Clear (automated report).

KBCE 230753Z AUTO 27009KT 10SM CLR 07/00 A3029 RMK AO2 SLP144 T00720000 $


Wind From 270°
Speed 09 kn.

 
 
jpsmedia.com for Web Design worldairports.se 2018   terms of use